Flight Track Log - Related Links

Times and Time Zones

All times are in EDT time to prevent confusion due to time zone crossing. See the AWE334 flight status page for this flight to view local times or setup timezone preferences in your user account.

Time Position Orientation Groundspeed Altitude Reporting Facility
EDT Latitude Longitude Course Direction KTS MPH feet Rate Location/Type
Sat 08:14:04 AM 42.9500 -87.8833 87° East 174 200 1,300  Level KMKE
Sat 08:14:23 AM 42.9506 -87.8697 87° East 161 185 2,000 1,875 Climbing Chicago Center
Sat 08:15:24 AM 43.0019 -87.8475 18° North 236 272 3,800 2,164 Climbing Chicago Center
Sat 08:16:25 AM 43.0506 -87.8908 327° Northwest 249 287 6,400 2,410 Climbing Chicago Center
Sat 08:17:26 AM 43.0275 -87.9931 253° West 286 329 8,700 2,213 Climbing Chicago Center
Sat 08:18:27 AM 43.0178 -88.1092 264° West 305 351 10,900 1,820 Climbing Chicago Center
Sat 08:19:28 AM 43.0153 -88.2503 269° West 360 414 12,400 2,066 Climbing Chicago Center
Sat 08:20:29 AM 43.0136 -88.4000 269° West 386 444 15,100 2,607 Climbing Chicago Center
Sat 08:21:30 AM 43.0133 -88.5750 270° West 391 450 17,700 2,066 Climbing Chicago Center
Sat 08:22:31 AM 43.0158 -88.7297 271° West 400 460 19,300 1,672 Climbing Chicago Center
Sat 08:23:32 AM 43.0144 -88.8897 269° West 414 476 21,100 1,721 Climbing Chicago Center
Sat 08:24:33 AM 43.0117 -89.0497 269° West 419 482 22,800 1,623 Climbing Chicago Center
Sat 08:25:34 AM 43.0092 -89.2125 269° West 424 488 24,400 1,475 Climbing Chicago Center
Sat 08:26:35 AM 43.0067 -89.3744 269° West 426 490 25,800 1,377 Climbing Chicago Center
Sat 08:27:36 AM 43.0050 -89.5383 269° West 432 497 27,200 1,220 Climbing Chicago Center
Sat 08:28:38 AM 43.0058 -89.7044 270° West 438 504 28,300 1,073 Climbing Chicago Center
Sat 08:29:39 AM 43.0086 -89.8742 271° West 445 512 29,400 1,033 Climbing Chicago Center
Sat 08:30:40 AM 43.0092 -90.0319 270° West 449 517 30,400 1,131 Climbing Chicago Center
Sat 08:31:41 AM 42.9617 -90.2233 251° West 445 512 31,700 1,171 Climbing Chicago Center
Sat 08:32:43 AM 42.9247 -90.3814 252° West 441 507 32,800 976 Climbing Chicago Center
Sat 08:33:44 AM 42.8847 -90.5392 251° West 443 510 33,700 590 Climbing Chicago Center
Sat 08:34:45 AM 42.8431 -90.6972 250° West 447 514 34,000 148 Climbing Chicago Center
Sat 08:35:46 AM 42.8019 -90.8597 251° West 456 525 34,000  Level Chicago Center
Sat 08:37:49 AM 42.7211 -91.1808 251° West 451 519 34,000  Level Chicago Center
Sat 08:38:50 AM 42.6789 -91.3425 250° West 452 520 34,000  Level Chicago Center
Sat 08:39:51 AM 42.6353 -91.5050 250° West 452 520 34,000  Level Chicago Center
Sat 08:40:52 AM 42.5931 -91.6694 251° West 453 521 34,000  Level Chicago Center
Sat 08:41:54 AM 42.5511 -91.8303 251° West 451 519 34,000  Level Chicago Center
Sat 08:42:55 AM 42.5000 -92.0217 250° West 450 518 34,000  Level Chicago Center
Sat 08:43:56 AM 42.4583 -92.1797 250° West 449 517 34,000  Level Chicago Center
Sat 08:45:11 AM 42.4072 -92.3686 250° West 447 514 34,000  Level Minneapolis Center
Sat 08:46:12 AM 42.3647 -92.5267 250° West 449 517 34,000  Level Minneapolis Center
Sat 08:47:13 AM 42.3217 -92.6847 250° West 450 518 34,000  Level Minneapolis Center
Sat 08:48:14 AM 42.2783 -92.8428 250° West 452 520 34,000 49 Level Minneapolis Center
Sat 08:49:15 AM 42.2342 -93.0022 250° West 454 522 34,100  Climbing Minneapolis Center
Sat 08:50:16 AM 42.1903 -93.1594 249° West 453 521 34,000  Descending Minneapolis Center
Sat 08:51:17 AM 42.1386 -93.3464 250° West 448 516 34,100 541 Climbing Minneapolis Center
Sat 08:52:18 AM 42.0939 -93.5003 249° West 445 512 35,100 829 Climbing Minneapolis Center
Sat 08:53:20 AM 42.0514 -93.6558 250° West 446 513 35,800 443 Climbing Minneapolis Center
Sat 08:54:20 AM 42.0069 -93.8097 249° West 446 513 36,000 98 Climbing Minneapolis Center
Sat 08:55:22 AM 41.9597 -93.9767 249° West 461 531 36,000  Level Minneapolis Center
Sat 08:56:23 AM 41.9128 -94.1344 248° West 456 525 36,000  Level Minneapolis Center
Sat 08:57:24 AM 41.8658 -94.2933 248° West 459 528 36,000  Level Minneapolis Center
Sat 08:58:25 AM 41.8194 -94.4531 249° West 461 531 36,000  Level Minneapolis Center
Sat 08:59:26 AM 41.7731 -94.6136 249° West 462 532 36,000  Level Minneapolis Center
Sat 09:00:28 AM 41.7256 -94.7722 248° West 461 531 36,000  Level Minneapolis Center
Sat 09:01:29 AM 41.6797 -94.9319 249° West 461 531 36,000  Level Minneapolis Center
Sat 09:02:30 AM 41.6225 -95.1206 248° West 456 525 36,000  Level Minneapolis Center
Sat 09:03:31 AM 41.5742 -95.2797 248° West 461 531 36,000  Level Minneapolis Center
Sat 09:04:32 AM 41.5261 -95.4392 248° West 463 533 36,000  Level Minneapolis Center
Sat 09:05:33 AM 41.4769 -95.5981 248° West 464 534 36,000  Level Minneapolis Center
Sat 09:06:34 AM 41.4336 -95.7364 247° West 461 531 36,000  Level Minneapolis Center
Sat 09:07:35 AM 41.3758 -95.9267 248° West 461 531 36,000  Level Minneapolis Center
Sat 09:08:36 AM 41.3269 -96.0847 248° West 461 531 36,000  Level Minneapolis Center
Sat 09:09:37 AM 41.2772 -96.2419 247° West 460 529 36,000  Level Minneapolis Center
Sat 09:10:38 AM 41.2281 -96.4008 248° West 461 531 36,000  Level Minneapolis Center
Sat 09:11:39 AM 41.1783 -96.5569 247° West 460 529 36,000  Level Minneapolis Center
Sat 09:12:40 AM 41.1278 -96.7111 247° West 457 526 36,000  Level Minneapolis Center
Sat 09:13:41 AM 41.0775 -96.8669 247° West 459 528 36,000  Level Minneapolis Center
Sat 09:14:42 AM 41.0283 -97.0217 247° West 457 526 36,000  Level Minneapolis Center
Sat 09:15:43 AM 40.9781 -97.1756 247° West 457 526 36,000  Level Minneapolis Center
Sat 09:16:44 AM 40.9278 -97.3294 247° West 456 525 36,000  Level Minneapolis Center
Sat 09:17:45 AM 40.8778 -97.4828 247° West 451 519 36,000  Level Minneapolis Center
Sat 09:18:46 AM 40.8286 -97.6328 247° West 446 513 36,000  Level Minneapolis Center
Sat 09:19:47 AM 40.7794 -97.7825 247° West 444 511 36,000  Level Minneapolis Center
Sat 09:20:48 AM 40.7294 -97.9311 246° West 442 509 36,000  Level Minneapolis Center
Sat 09:21:48 AM 40.6794 -98.0786 246° West 441 507 36,000  Level Minneapolis Center
Sat 09:22:49 AM 40.6303 -98.2267 246° West 439 505 36,000  Level Minneapolis Center
Sat 09:23:50 AM 40.5806 -98.3731 246° West 437 503 36,000  Level Minneapolis Center
Sat 09:24:51 AM 40.5311 -98.5186 246° West 435 501 36,000  Level Minneapolis Center
Sat 09:25:52 AM 40.4814 -98.6647 246° West 435 501 36,000  Level Minneapolis Center
Sat 09:26:53 AM 40.4306 -98.8128 246° West 439 505 36,000  Level Minneapolis Center
Sat 09:27:54 AM 40.3806 -98.9611 246° West 441 507 36,000  Level Minneapolis Center
Sat 09:28:12 AM 40.3597 -99.0219 246° West 444 511 36,000  Level Denver Center
Sat 09:29:12 AM 40.3086 -99.1672 245° Southwest 441 507 36,000 50 Level Denver Center
Sat 09:30:13 AM 40.2561 -99.3142 245° Southwest 444 511 36,100  Climbing Denver Center
Sat 09:31:14 AM 40.2047 -99.4586 245° Southwest 439 505 36,000 -50 Descending Denver Center
Sat 09:32:14 AM 40.1550 -99.6039 246° West 436 502 36,000  Level Denver Center
Sat 09:33:15 AM 40.1039 -99.7469 245° Southwest 434 499 36,000  Level Denver Center
Sat 09:34:16 AM 40.0531 -99.8881 245° Southwest 431 496 36,000  Level Denver Center
Sat 09:35:16 AM 40.0025 -100.0289 245° Southwest 428 493 36,000  Level Denver Center
Sat 09:36:17 AM 39.9519 -100.1708 245° Southwest 431 496 36,000  Level Denver Center
Sat 09:37:18 AM 39.8950 -100.3253 244° Southwest 429 494 36,000  Level Denver Center
Sat 09:38:18 AM 39.8467 -100.4603 245° Southwest 429 494 36,000  Level Denver Center
Sat 09:39:19 AM 39.7981 -100.5917 244° Southwest 422 486 36,000  Level Denver Center
Sat 09:40:20 AM 39.7408 -100.7461 244° Southwest 423 487 36,000  Level Denver Center
Sat 09:41:21 AM 39.6928 -100.8797 245° Southwest 426 490 36,000  Level Denver Center
Sat 09:42:22 AM 39.6425 -101.0119 244° Southwest 427 491 36,000  Level Denver Center
Sat 09:43:22 AM 39.5853 -101.1664 244° Southwest 424 488 36,000  Level Denver Center
Sat 09:44:23 AM 39.5364 -101.3006 245° Southwest 430 495 36,000  Level Denver Center
Sat 09:45:24 AM 39.4861 -101.4314 244° Southwest 424 488 36,000  Level Denver Center
Sat 09:46:25 AM 39.4289 -101.5833 244° Southwest 420 483 36,000  Level Denver Center
Sat 09:47:26 AM 39.3786 -101.7114 243° Southwest 418 481 36,000  Level Denver Center
Sat 09:48:26 AM 39.3142 -101.8414 237° Southwest 414 476 36,000  Level Denver Center
Sat 09:49:27 AM 39.2567 -101.9608 238° Southwest 410 472 36,000  Level Denver Center
Sat 09:50:28 AM 39.1894 -102.0972 238° Southwest 405 466 36,000  Level Denver Center
Sat 09:51:29 AM 39.1325 -102.2125 238° Southwest 401 461 36,000  Level Denver Center
Sat 09:52:30 AM 39.0733 -102.3283 237° Southwest 404 465 36,000  Level Denver Center
Sat 09:53:31 AM 39.0061 -102.4650 238° Southwest 405 466 36,000  Level Denver Center
Sat 09:54:32 AM 38.9469 -102.5825 237° Southwest 408 470 36,000 49 Level Denver Center
Sat 09:55:33 AM 38.8886 -102.7011 238° Southwest 410 472 36,100  Climbing Denver Center
Sat 09:56:34 AM 38.8247 -102.8317 238° Southwest 401 461 36,000 -49 Descending Denver Center
Sat 09:57:35 AM 38.7642 -102.9508 237° Southwest 395 455 36,000  Level Denver Center
Sat 09:58:36 AM 38.7058 -103.0686 238° Southwest 388 447 36,000  Level Denver Center
Sat 09:59:37 AM 38.6486 -103.1844 238° Southwest 382 440 36,000  Level Denver Center
Sat 10:00:38 AM 38.5908 -103.2972 237° Southwest 375 432 36,000  Level Denver Center
Sat 10:01:39 AM 38.5283 -103.4192 237° Southwest 377 434 36,000  Level Denver Center
Sat 10:02:40 AM 38.4722 -103.5306 237° Southwest 373 429 36,000  Level Denver Center
Sat 10:03:41 AM 38.4183 -103.6367 237° Southwest 371 427 36,000  Level Denver Center
Sat 10:04:42 AM 38.3644 -103.7439 237° Southwest 375 432 36,000  Level Denver Center
Sat 10:05:43 AM 38.3000 -103.8681 237° Southwest 377 434 36,000  Level Denver Center
Sat 10:06:45 AM 38.2450 -103.9742 237° Southwest 376 433 36,000  Level Denver Center
Sat 10:07:46 AM 38.1814 -104.0983 237° Southwest 376 433 36,000  Level Denver Center
Sat 10:08:47 AM 38.1267 -104.2042 237° Southwest 377 434 36,000  Level Denver Center
Sat 10:09:48 AM 38.0717 -104.3092 236° Southwest 373 429 36,000  Level Denver Center
Sat 10:10:50 AM 38.0078 -104.4325 237° Southwest 375 432 36,000  Level Denver Center
Sat 10:11:51 AM 37.9519 -104.5383 236° Southwest 378 435 36,000  Level Denver Center
Sat 10:12:52 AM 37.8844 -104.6669 236° Southwest 392 451 36,000  Level Denver Center
Sat 10:13:54 AM 37.8264 -104.7781 237° Southwest 396 456 36,000  Level Denver Center
Sat 10:14:55 AM 37.7686 -104.8858 236° Southwest 391 450 36,000  Level Denver Center
Sat 10:15:56 AM 37.7003 -105.0142 236° Southwest 393 452 36,000  Level Denver Center
Sat 10:16:58 AM 37.6428 -105.1228 236° Southwest 392 451 36,000  Level Denver Center
Sat 10:17:59 AM 37.5758 -105.2503 237° Southwest 391 450 36,000  Level Denver Center
Sat 10:19:00 AM 37.5194 -105.3542 236° Southwest 392 451 36,000  Level Denver Center
Sat 10:20:02 AM 37.4508 -105.4808 236° Southwest 393 452 36,000  Level Denver Center
Sat 10:21:03 AM 37.3922 -105.5883 236° Southwest 392 451 36,000  Level Denver Center
Sat 10:22:05 AM 37.3233 -105.7153 236° Southwest 392 451 36,000  Level Denver Center
Sat 10:23:06 AM 37.2611 -105.8275 235° Southwest 394 453 36,000  Level Denver Center
Sat 10:24:08 AM 37.2061 -105.9314 236° Southwest 390 449 36,000  Level Denver Center
Sat 10:25:09 AM 37.1364 -106.0564 235° Southwest 391 450 36,000  Level Denver Center
Sat 10:26:11 AM 37.0783 -106.1650 236° Southwest 392 451 36,000  Level Denver Center
Sat 10:27:13 AM 37.0072 -106.2911 235° Southwest 395 455 36,000  Level Denver Center
Sat 10:28:14 AM 36.9475 -106.3989 235° Southwest 394 453 36,000  Level Denver Center
Sat 10:29:28 AM 36.8681 -106.5436 236° Southwest 397 457 36,000  Level Denver Center
Sat 10:30:30 AM 36.8089 -106.6522 236° Southwest 397 457 36,000  Level Denver Center
Sat 10:31:32 AM 36.7375 -106.7775 235° Southwest 396 456 36,000  Level Denver Center
Sat 10:32:34 AM 36.6775 -106.8867 236° Southwest 399 459 36,000  Level Denver Center
Sat 10:33:35 AM 36.6158 -106.9942 234° Southwest 399 459 36,000  Level Denver Center
Sat 10:34:37 AM 36.5461 -107.1206 236° Southwest 397 457 36,000  Level Denver Center
Sat 10:35:39 AM 36.4836 -107.2286 234° Southwest 399 459 36,000  Level Denver Center
Sat 10:36:40 AM 36.4122 -107.3542 235° Southwest 398 458 36,000  Level Denver Center
Sat 10:37:30 AM 36.3619 -107.4456 236° Southwest 398 458 36,000  Level Albuquerque Center
Sat 10:38:31 AM 36.3003 -107.5528 235° Southwest 397 457 36,000  Level Albuquerque Center
Sat 10:39:33 AM 36.2269 -107.6783 234° Southwest 400 460 36,000  Level Albuquerque Center
Sat 10:40:34 AM 36.1633 -107.7839 233° Southwest 400 460 36,000  Level Albuquerque Center
Sat 10:41:36 AM 36.0875 -107.9042 232° Southwest 396 456 36,000  Level Albuquerque Center
Sat 10:42:38 AM 36.0214 -108.0089 232° Southwest 400 460 36,000  Level Albuquerque Center
Sat 10:43:39 AM 35.9567 -108.1139 233° Southwest 400 460 36,000  Level Albuquerque Center
Sat 10:44:41 AM 35.8811 -108.2358 233° Southwest 399 459 36,000  Level Albuquerque Center
Sat 10:45:43 AM 35.8150 -108.3406 232° Southwest 401 461 36,000  Level Albuquerque Center
Sat 10:46:45 AM 35.7356 -108.4669 232° Southwest 409 471 36,000  Level Albuquerque Center
Sat 10:47:46 AM 35.6647 -108.5767 232° Southwest 420 483 36,000  Level Albuquerque Center
Sat 10:48:48 AM 35.5953 -108.6869 232° Southwest 422 486 36,000  Level Albuquerque Center
Sat 10:49:50 AM 35.5144 -108.8142 232° Southwest 421 484 36,000  Level Albuquerque Center
Sat 10:50:51 AM 35.4422 -108.9203 230° Southwest 420 483 36,000  Level Albuquerque Center
Sat 10:51:53 AM 35.3511 -109.0358 226° Southwest 420 483 36,000  Level Albuquerque Center
Sat 10:52:55 AM 35.2739 -109.1353 226° Southwest 420 483 36,000  Level Albuquerque Center
Sat 10:53:57 AM 35.1969 -109.2361 227° Southwest 421 484 36,000  Level Albuquerque Center
Sat 10:54:58 AM 35.1072 -109.3519 227° Southwest 420 483 36,000  Level Albuquerque Center
Sat 10:56:00 AM 35.0294 -109.4497 226° Southwest 418 481 36,000  Level Albuquerque Center
Sat 10:57:02 AM 34.9381 -109.5628 225° Southwest 418 481 36,000  Level Albuquerque Center
Sat 10:58:04 AM 34.8608 -109.6619 227° Southwest 420 483 36,000  Level Albuquerque Center
Sat 10:59:05 AM 34.7689 -109.7772 226° Southwest 423 487 36,000  Level Albuquerque Center
Sat 11:00:07 AM 34.6994 -109.8817 231° Southwest 418 481 36,000  Level Albuquerque Center
Sat 11:01:09 AM 34.6514 -110.0058 245° Southwest 418 481 36,000  Level Albuquerque Center
Sat 11:02:11 AM 34.6008 -110.1550 248° West 422 486 36,000 -293 Level Albuquerque Center
Sat 11:03:12 AM 34.5556 -110.2783 246° West 420 483 35,400 -1,317 Descending Albuquerque Center
Sat 11:04:14 AM 34.4997 -110.4103 243° Southwest 402 463 33,300 -1,790 Descending Albuquerque Center
Sat 11:05:16 AM 34.4564 -110.5386 248° West 407 468 31,700 -1,355 Descending Albuquerque Center
Sat 11:06:18 AM 34.4097 -110.6592 245° Southwest 399 459 30,500 -1,694 Descending Albuquerque Center
Sat 11:07:20 AM 34.3608 -110.7767 243° Southwest 394 453 28,200 -2,098 Descending Albuquerque Center
Sat 11:08:21 AM 34.2950 -110.8775 232° Southwest 387 445 26,200 -2,000 Descending Albuquerque Center
Sat 11:09:23 AM 34.2211 -110.9664 225° Southwest 378 435 24,100 -1,887 Descending Albuquerque Center
Sat 11:10:25 AM 34.1536 -111.0550 227° Southwest 365 420 22,300 -1,984 Descending Albuquerque Center
Sat 11:11:27 AM 34.0736 -111.1578 227° Southwest 353 406 20,000 -1,984 Descending Albuquerque Center
Sat 11:12:29 AM 34.0094 -111.2400 227° Southwest 342 394 18,200 -1,839 Descending Albuquerque Center
Sat 11:13:31 AM 33.9458 -111.3228 227° Southwest 336 387 16,200 -1,452 Descending Albuquerque Center
Sat 11:14:33 AM 33.8836 -111.4025 227° Southwest 325 374 15,200 -1,171 Descending Albuquerque Center
Sat 11:15:34 AM 33.8381 -111.4878 237° Southwest 305 351 13,800 -1,415 Descending Albuquerque Center
Sat 11:16:36 AM 33.7931 -111.5717 237° Southwest 297 342 12,300 -1,403 Descending Albuquerque Center
Sat 11:17:38 AM 33.7494 -111.6547 238° Southwest 293 337 10,900 -1,161 Descending Albuquerque Center
Sat 11:18:40 AM 33.7058 -111.7381 238° Southwest 293 337 9,900 -629 Descending Albuquerque Center
Sat 11:19:42 AM 33.6617 -111.8164 236° Southwest 282 325 9,600 -435 Descending Albuquerque Center
Sat 11:20:44 AM 33.6178 -111.8969 237° Southwest 242 278 9,000 -823 Descending Albuquerque Center
Sat 11:21:46 AM 33.5825 -111.9619 237° Southwest 234 269 7,900 -968 Descending Albuquerque Center
Sat 11:22:48 AM 33.5483 -112.0308 239° Southwest 239 275 7,000 -585 Descending Albuquerque Center
Sat 11:23:49 AM 33.5256 -112.0922 246° West 201 231 6,700 -683 Descending Albuquerque Center
Sat 11:24:51 AM 33.5256 -112.1550 270° West 190 219 5,600 -1,113 Descending Albuquerque Center
Sat 11:25:53 AM 33.5033 -112.2008 240° Southwest 187 215 4,400 -1,161 Descending Albuquerque Center

Login

Don't have an account? Register now (free) for customized features, flight alerts, and more!